Time;durP1;ratioP1;P1;durP2;ratioP2;P2;SDS_P1;SDS_P2;PMS_P1;PMS_P2;Temp;Humidity;BMP_temperature;BMP_pressure;BME280_temperature;BME280_humidity;BME280_pressure;Samples;Min_cycle;Max_cycle;Signal;HPM_P1;HPM_P2
2023/08/24 00:00:24;;;;;;;11.70;9.00;;;;;;;;;;4365994;32;316579;-89
2023/08/24 00:02:50;;;;;;;16.42;8.98;;;;;;;;;;4341854;32;317646;-89
2023/08/24 00:05:17;;;;;;;11.57;8.75;;;;;;;;;;4369024;32;317573;-85
2023/08/24 00:07:44;;;;;;;11.63;8.68;;;;;;;;;;4370217;32;317581;-88
2023/08/24 00:10:13;;;;;;;10.98;8.82;;;;;;;;;;4369886;32;318413;-88
2023/08/24 00:12:40;;;;;;;14.85;9.48;;;;;;;;;;4385477;32;317626;-88
2023/08/24 00:15:10;;;;;;;15.35;8.48;;;;;;;;;;4375416;32;317549;-88
2023/08/24 00:17:39;;;;;;;12.25;9.52;;;;;;;;;;4356891;32;318041;-88
2023/08/24 00:20:10;;;;;;;11.57;8.93;;;;;;;;;;4400250;32;317668;-88
2023/08/24 00:22:38;;;;;;;10.40;8.57;;;;;;;;;;4389855;32;317652;-88
2023/08/24 00:25:08;;;;;;;10.45;8.88;;;;;;;;;;4400096;32;317537;-84
2023/08/24 00:27:35;;;;;;;9.60;8.68;;;;;;;;;;4378571;32;317871;-88
2023/08/24 00:30:04;;;;;;;14.80;9.68;;;;;;;;;;4375825;32;316527;-83
2023/08/24 00:32:34;;;;;;;15.77;9.07;;;;;;;;;;4375540;32;317688;-86
2023/08/24 00:35:02;;;;;;;17.85;9.07;;;;;;;;;;4400314;32;317667;-87
2023/08/24 00:37:29;;;;;;;8.73;7.78;;;;;;;;;;4389181;32;318317;-88
2023/08/24 00:39:56;;;;;;;10.70;9.05;;;;;;;;;;4399993;32;316475;-88
2023/08/24 00:42:22;;;;;;;10.43;9.38;;;;;;;;;;4390424;32;317566;-83
2023/08/24 00:44:49;;;;;;;12.95;8.55;;;;;;;;;;4399141;32;317766;-85
2023/08/24 00:47:17;;;;;;;11.52;9.18;;;;;;;;;;4402009;32;317620;-86
2023/08/24 00:49:43;;;;;;;10.93;8.85;;;;;;;;;;4395070;32;318123;-84
2023/08/24 00:52:12;;;;;;;10.93;9.07;;;;;;;;;;4396592;32;317450;-90
2023/08/24 00:54:40;;;;;;;21.87;10.20;;;;;;;;;;4393945;32;317957;-88
2023/08/24 00:57:07;;;;;;;11.55;9.32;;;;;;;;;;4386207;32;318602;-88
2023/08/24 00:59:35;;;;;;;9.70;8.40;;;;;;;;;;4375068;32;318207;-88
2023/08/24 01:02:03;;;;;;;10.15;9.00;;;;;;;;;;4385148;32;316592;-87
2023/08/24 01:04:30;;;;;;;14.25;9.32;;;;;;;;;;4374859;32;317780;-87
2023/08/24 01:06:57;;;;;;;11.48;9.27;;;;;;;;;;4384480;32;318175;-87
2023/08/24 01:09:25;;;;;;;14.98;9.45;;;;;;;;;;4374002;32;318210;-88
2023/08/24 01:12:01;;;;;;;12.80;8.75;;;;;;;;;;4384288;32;317569;-83
2023/08/24 01:14:38;;;;;;;12.80;8.83;;;;;;;;;;4373296;32;317730;-83
2023/08/24 01:17:11;;;;;;;9.82;8.52;;;;;;;;;;4384325;32;317881;-88
2023/08/24 01:19:40;;;;;;;11.65;9.00;;;;;;;;;;4365352;32;317626;-83
2023/08/24 01:22:13;;;;;;;11.00;9.23;;;;;;;;;;4383183;32;317540;-83
2023/08/24 01:24:48;;;;;;;13.57;8.70;;;;;;;;;;4365193;32;317475;-82
2023/08/24 01:27:17;;;;;;;10.52;9.43;;;;;;;;;;4368286;32;317533;-83
2023/08/24 01:29:44;;;;;;;12.82;9.40;;;;;;;;;;4359344;32;318402;-85
2023/08/24 01:32:11;;;;;;;10.10;8.95;;;;;;;;;;4367988;32;318312;-84
2023/08/24 01:34:39;;;;;;;16.90;8.68;;;;;;;;;;4355810;32;318508;-83
2023/08/24 01:37:06;;;;;;;12.88;9.05;;;;;;;;;;4352461;32;317787;-83
2023/08/24 01:39:43;;;;;;;10.18;9.18;;;;;;;;;;4355716;32;317742;-85
2023/08/24 01:42:15;;;;;;;10.32;9.27;;;;;;;;;;4359742;32;317946;-83
2023/08/24 01:44:49;;;;;;;11.85;8.60;;;;;;;;;;4355232;32;317769;-83
2023/08/24 01:47:18;;;;;;;12.40;9.45;;;;;;;;;;4366571;32;317695;-83
2023/08/24 01:49:46;;;;;;;11.02;8.63;;;;;;;;;;4358425;32;317810;-83
2023/08/24 01:52:13;;;;;;;10.98;9.80;;;;;;;;;;4373677;32;317503;-83
2023/08/24 01:54:41;;;;;;;12.50;9.82;;;;;;;;;;4372432;32;317661;-83
2023/08/24 01:57:08;;;;;;;9.43;8.63;;;;;;;;;;4386305;32;317891;-83
2023/08/24 01:59:34;;;;;;;11.77;8.88;;;;;;;;;;4385139;32;316811;-83
2023/08/24 02:02:02;;;;;;;12.65;8.57;;;;;;;;;;4383313;32;317884;-83
2023/08/24 02:04:29;;;;;;;11.27;8.48;;;;;;;;;;4372465;32;318069;-83
2023/08/24 02:06:56;;;;;;;9.63;8.30;;;;;;;;;;4383615;32;317619;-85
2023/08/24 02:09:23;;;;;;;13.00;9.02;;;;;;;;;;4373378;32;316658;-83
2023/08/24 02:11:50;;;;;;;13.38;8.98;;;;;;;;;;4368397;32;317625;-88
2023/08/24 02:14:18;;;;;;;17.20;9.60;;;;;;;;;;4376011;32;317705;-83
2023/08/24 02:16:46;;;;;;;15.77;9.98;;;;;;;;;;4373047;32;318685;-82
2023/08/24 02:19:16;;;;;;;12.15;9.65;;;;;;;;;;4383574;32;317703;-87
2023/08/24 02:21:43;;;;;;;12.93;8.88;;;;;;;;;;4372202;32;317659;-86
2023/08/24 02:24:11;;;;;;;17.67;9.65;;;;;;;;;;4382972;32;317559;-84
2023/08/24 02:26:38;;;;;;;12.73;9.80;;;;;;;;;;4373565;32;317599;-83
2023/08/24 02:29:05;;;;;;;17.33;10.45;;;;;;;;;;4369585;32;317419;-84
2023/08/24 02:31:31;;;;;;;16.02;12.93;;;;;;;;;;4372351;32;318885;-83
2023/08/24 02:33:58;;;;;;;24.25;16.58;;;;;;;;;;4383235;32;319351;-83
2023/08/24 02:36:27;;;;;;;20.83;14.75;;;;;;;;;;4373539;32;319070;-89
2023/08/24 02:38:54;;;;;;;15.23;11.52;;;;;;;;;;4382817;32;318618;-83
2023/08/24 02:41:21;;;;;;;13.70;11.07;;;;;;;;;;4383341;32;319498;-83
2023/08/24 02:43:47;;;;;;;22.15;11.20;;;;;;;;;;4369209;32;419978;-83
2023/08/24 02:46:14;;;;;;;12.60;10.95;;;;;;;;;;4383215;32;318555;-87
2023/08/24 02:48:41;;;;;;;11.38;10.18;;;;;;;;;;4372924;32;318626;-86
2023/08/24 02:51:09;;;;;;;13.23;9.77;;;;;;;;;;4382038;32;318645;-83
2023/08/24 02:53:37;;;;;;;12.50;10.32;;;;;;;;;;4371400;32;317456;-84
2023/08/24 02:56:05;;;;;;;12.25;10.80;;;;;;;;;;4382285;32;318702;-83
2023/08/24 02:58:32;;;;;;;14.02;10.52;;;;;;;;;;4372155;32;349248;-83
2023/08/24 03:00:59;;;;;;;16.02;10.55;;;;;;;;;;4381544;32;318825;-88
2023/08/24 03:03:28;;;;;;;11.12;10.02;;;;;;;;;;4372667;32;319277;-83
2023/08/24 03:05:59;;;;;;;17.55;10.45;;;;;;;;;;4382946;32;318929;-87
2023/08/24 03:08:26;;;;;;;12.20;10.15;;;;;;;;;;4370566;32;318658;-87
2023/08/24 03:10:55;;;;;;;14.30;10.10;;;;;;;;;;4384732;32;318835;-83
2023/08/24 03:13:24;;;;;;;16.80;10.38;;;;;;;;;;4374296;32;319211;-83
2023/08/24 03:15:52;;;;;;;14.27;10.20;;;;;;;;;;4384952;32;318988;-84
2023/08/24 03:18:19;;;;;;;11.65;10.45;;;;;;;;;;4384508;32;319056;-84
2023/08/24 03:20:47;;;;;;;16.62;10.40;;;;;;;;;;4357899;32;418571;-85
2023/08/24 03:23:14;;;;;;;14.00;10.05;;;;;;;;;;4369863;32;318505;-89
2023/08/24 03:25:42;;;;;;;14.65;9.32;;;;;;;;;;4349412;32;319293;-83
2023/08/24 03:28:11;;;;;;;11.38;10.18;;;;;;;;;;4384897;32;317365;-84
2023/08/24 03:30:39;;;;;;;11.93;10.60;;;;;;;;;;4372964;32;319095;-84
2023/08/24 03:33:06;;;;;;;15.32;11.65;;;;;;;;;;4370555;32;318820;-84
2023/08/24 03:35:34;;;;;;;19.60;16.67;;;;;;;;;;4357590;32;319066;-84
2023/08/24 03:38:01;;;;;;;34.22;20.33;;;;;;;;;;4356664;32;319101;-84
2023/08/24 03:40:28;;;;;;;21.00;13.82;;;;;;;;;;4372972;32;319328;-84
2023/08/24 03:42:56;;;;;;;13.80;11.50;;;;;;;;;;4369677;32;319017;-84
2023/08/24 03:45:24;;;;;;;19.12;10.45;;;;;;;;;;4360503;32;318637;-84
2023/08/24 03:47:51;;;;;;;12.27;10.48;;;;;;;;;;4380625;32;319427;-88
2023/08/24 03:50:19;;;;;;;17.83;10.82;;;;;;;;;;4386117;32;318790;-88
2023/08/24 03:52:49;;;;;;;15.30;10.18;;;;;;;;;;4357983;32;418709;-87
2023/08/24 03:55:18;;;;;;;14.68;10.68;;;;;;;;;;4369660;32;319417;-87
2023/08/24 03:57:45;;;;;;;13.57;9.43;;;;;;;;;;4360101;32;318544;-89
2023/08/24 04:00:14;;;;;;;12.63;11.02;;;;;;;;;;4369950;32;318276;-88
2023/08/24 04:02:42;;;;;;;10.57;9.40;;;;;;;;;;4359992;32;318843;-88
2023/08/24 04:05:09;;;;;;;10.55;9.45;;;;;;;;;;4370479;32;318300;-83
2023/08/24 04:07:38;;;;;;;19.17;10.20;;;;;;;;;;4360388;32;318667;-84
2023/08/24 04:10:06;;;;;;;15.73;10.38;;;;;;;;;;4368895;32;318750;-84
2023/08/24 04:12:32;;;;;;;14.25;11.05;;;;;;;;;;4359350;32;353743;-83
2023/08/24 04:15:00;;;;;;;16.25;11.45;;;;;;;;;;4385411;32;319858;-85
2023/08/24 04:17:28;;;;;;;19.20;11.60;;;;;;;;;;4375528;32;319055;-84
2023/08/24 04:19:56;;;;;;;13.30;11.40;;;;;;;;;;4384074;32;319244;-85
2023/08/24 04:22:23;;;;;;;13.48;11.43;;;;;;;;;;4367789;32;318497;-85
2023/08/24 04:24:50;;;;;;;13.95;10.82;;;;;;;;;;4396534;32;318468;-84
2023/08/24 04:27:16;;;;;;;15.60;11.45;;;;;;;;;;4403864;32;319322;-84
2023/08/24 04:29:43;;;;;;;13.05;10.55;;;;;;;;;;4400389;32;325097;-88
2023/08/24 04:32:10;;;;;;;12.25;10.93;;;;;;;;;;4411398;32;318917;-91
2023/08/24 04:34:37;;;;;;;12.15;10.88;;;;;;;;;;4396745;32;319186;-84
2023/08/24 04:37:07;;;;;;;22.55;11.77;;;;;;;;;;4407481;32;318753;-85
2023/08/24 04:39:35;;;;;;;12.98;10.93;;;;;;;;;;4398212;32;318586;-84
2023/08/24 04:42:02;;;;;;;13.38;11.98;;;;;;;;;;4410202;32;318546;-86
2023/08/24 04:44:29;;;;;;;16.15;11.95;;;;;;;;;;4395850;32;318389;-91
2023/08/24 04:46:55;;;;;;;16.00;11.98;;;;;;;;;;4408953;32;318386;-84
2023/08/24 04:49:23;;;;;;;12.52;10.45;;;;;;;;;;4396539;32;319574;-81
2023/08/24 04:51:50;;;;;;;18.35;12.77;;;;;;;;;;4400145;32;319239;-81
2023/08/24 04:54:18;;;;;;;13.65;11.30;;;;;;;;;;4398226;32;319712;-81
2023/08/24 04:56:45;;;;;;;18.90;11.77;;;;;;;;;;4374930;32;318661;-81
2023/08/24 04:59:12;;;;;;;17.58;11.30;;;;;;;;;;4383568;32;319780;-87
2023/08/24 05:01:38;;;;;;;15.98;11.57;;;;;;;;;;4373418;32;319227;-81
2023/08/24 05:04:08;;;;;;;20.52;12.25;;;;;;;;;;4360865;32;318576;-82
2023/08/24 05:06:36;;;;;;;17.70;12.70;;;;;;;;;;4362881;32;319264;-81
2023/08/24 05:09:02;;;;;;;16.15;11.82;;;;;;;;;;4365570;32;318733;-81
2023/08/24 05:11:30;;;;;;;14.00;12.10;;;;;;;;;;4375047;32;318751;-87
2023/08/24 05:13:57;;;;;;;14.87;10.48;;;;;;;;;;4384058;32;319313;-82
2023/08/24 05:16:24;;;;;;;17.05;10.88;;;;;;;;;;4374633;32;319782;-81
2023/08/24 05:18:51;;;;;;;11.85;10.68;;;;;;;;;;4384348;32;319290;-85
2023/08/24 05:21:19;;;;;;;15.57;10.93;;;;;;;;;;4384295;32;319716;-84
2023/08/24 05:23:45;;;;;;;26.90;13.02;;;;;;;;;;4373260;32;342758;-81
2023/08/24 05:26:12;;;;;;;14.25;12.10;;;;;;;;;;4384206;32;319813;-82
2023/08/24 05:28:40;;;;;;;22.37;12.27;;;;;;;;;;4372982;32;319419;-81
2023/08/24 05:31:07;;;;;;;18.37;11.65;;;;;;;;;;4383841;32;319174;-81
2023/08/24 05:33:34;;;;;;;16.62;11.00;;;;;;;;;;4372291;32;318740;-82
2023/08/24 05:36:00;;;;;;;19.70;12.10;;;;;;;;;;4383085;32;319720;-82
2023/08/24 05:38:27;;;;;;;18.98;11.80;;;;;;;;;;4373699;32;319232;-81
2023/08/24 05:40:57;;;;;;;16.35;10.68;;;;;;;;;;4382152;32;345154;-87
2023/08/24 05:43:24;;;;;;;22.75;11.40;;;;;;;;;;4365120;32;319558;-85
2023/08/24 05:45:53;;;;;;;27.95;12.90;;;;;;;;;;4381672;32;319808;-81
2023/08/24 05:48:20;;;;;;;14.48;11.88;;;;;;;;;;4382429;32;319327;-80
2023/08/24 05:50:48;;;;;;;24.52;12.55;;;;;;;;;;4369572;32;420001;-80
2023/08/24 05:53:15;;;;;;;21.33;11.77;;;;;;;;;;4382893;32;319366;-80
2023/08/24 05:55:41;;;;;;;20.37;11.57;;;;;;;;;;4362976;32;334614;-86
2023/08/24 05:58:09;;;;;;;13.75;12.27;;;;;;;;;;4382556;32;319200;-86
2023/08/24 06:00:36;;;;;;;18.70;11.65;;;;;;;;;;4373559;32;319342;-86
2023/08/24 06:03:09;;;;;;;18.85;12.35;;;;;;;;;;4383505;32;319401;-87
2023/08/24 06:05:36;;;;;;;22.13;11.63;;;;;;;;;;4368134;32;319721;-80
2023/08/24 06:08:03;;;;;;;24.80;12.05;;;;;;;;;;4367954;32;319297;-80
2023/08/24 06:10:30;;;;;;;37.53;16.35;;;;;;;;;;4358690;32;319265;-81
2023/08/24 06:13:01;;;;;;;22.13;14.23;;;;;;;;;;4368933;32;317787;-80
2023/08/24 06:15:28;;;;;;;18.98;12.73;;;;;;;;;;4357829;32;318775;-88
2023/08/24 06:17:55;;;;;;;19.23;13.10;;;;;;;;;;4367855;32;350245;-80
2023/08/24 06:20:23;;;;;;;14.38;11.68;;;;;;;;;;4343947;32;319649;-84
2023/08/24 06:22:50;;;;;;;16.02;11.93;;;;;;;;;;4368421;32;319451;-80
2023/08/24 06:25:17;;;;;;;27.02;12.35;;;;;;;;;;4368802;32;351062;-81
2023/08/24 06:27:43;;;;;;;16.10;11.63;;;;;;;;;;4370059;32;319354;-86
2023/08/24 06:30:11;;;;;;;17.20;11.23;;;;;;;;;;4369630;32;318856;-87
2023/08/24 06:32:37;;;;;;;14.07;11.40;;;;;;;;;;4363284;32;319014;-80
2023/08/24 06:35:05;;;;;;;23.00;11.38;;;;;;;;;;4377820;32;319873;-80
2023/08/24 06:37:34;;;;;;;12.37;11.02;;;;;;;;;;4368049;32;319394;-78
2023/08/24 06:40:00;;;;;;;13.65;12.13;;;;;;;;;;4376902;32;327586;-79
2023/08/24 06:42:28;;;;;;;21.45;12.60;;;;;;;;;;4355920;32;319690;-79
2023/08/24 06:44:54;;;;;;;16.37;12.10;;;;;;;;;;4380857;32;319718;-78
2023/08/24 06:47:21;;;;;;;19.05;12.13;;;;;;;;;;4371988;32;319588;-81
2023/08/24 06:49:48;;;;;;;17.15;12.37;;;;;;;;;;4376998;32;319831;-83
2023/08/24 06:52:15;;;;;;;13.82;11.07;;;;;;;;;;4371295;32;319915;-81
2023/08/24 06:54:44;;;;;;;14.25;11.52;;;;;;;;;;4370389;32;319673;-83
2023/08/24 06:57:11;;;;;;;11.88;10.77;;;;;;;;;;4382377;32;318768;-80
2023/08/24 06:59:41;;;;;;;13.77;11.43;;;;;;;;;;4372751;32;319727;-84
2023/08/24 07:02:08;;;;;;;16.62;12.25;;;;;;;;;;4367091;32;318665;-82
2023/08/24 07:04:34;;;;;;;17.83;11.63;;;;;;;;;;4363574;32;346448;-81
2023/08/24 07:07:01;;;;;;;13.18;11.68;;;;;;;;;;4361907;32;319502;-82
2023/08/24 07:09:28;;;;;;;15.05;11.70;;;;;;;;;;4372224;32;319652;-83
2023/08/24 07:11:56;;;;;;;13.70;12.40;;;;;;;;;;4380757;32;319562;-82
2023/08/24 07:14:26;;;;;;;12.25;10.93;;;;;;;;;;4371233;32;319629;-82
2023/08/24 07:16:52;;;;;;;13.52;12.00;;;;;;;;;;4370404;32;319440;-84
2023/08/24 07:19:19;;;;;;;20.80;11.27;;;;;;;;;;4364945;32;319072;-83
2023/08/24 07:21:46;;;;;;;12.20;10.98;;;;;;;;;;4345128;32;419861;-82
2023/08/24 07:24:13;;;;;;;13.38;11.98;;;;;;;;;;4373026;32;318909;-84
2023/08/24 07:26:41;;;;;;;15.13;11.60;;;;;;;;;;4369936;32;318646;-83
2023/08/24 07:29:09;;;;;;;14.48;11.80;;;;;;;;;;4382215;32;319219;-83
2023/08/24 07:31:36;;;;;;;17.23;11.50;;;;;;;;;;4373099;32;318887;-82
2023/08/24 07:34:03;;;;;;;14.87;11.93;;;;;;;;;;4382348;32;319352;-82
2023/08/24 07:36:32;;;;;;;14.10;11.98;;;;;;;;;;4371442;32;318775;-82
2023/08/24 07:38:59;;;;;;;17.40;10.77;;;;;;;;;;4382372;32;319279;-84
2023/08/24 07:41:26;;;;;;;14.18;10.30;;;;;;;;;;4371421;32;319285;-84
2023/08/24 07:43:54;;;;;;;15.80;11.63;;;;;;;;;;4382025;32;318827;-84
2023/08/24 07:46:23;;;;;;;15.23;11.18;;;;;;;;;;4377878;32;319284;-85
2023/08/24 07:48:49;;;;;;;17.95;10.90;;;;;;;;;;4381103;32;318769;-80
2023/08/24 07:51:16;;;;;;;13.45;10.38;;;;;;;;;;4392083;32;319977;-86
2023/08/24 07:53:43;;;;;;;13.98;10.80;;;;;;;;;;4373202;32;318914;-88
2023/08/24 07:56:10;;;;;;;12.23;10.98;;;;;;;;;;4378736;32;319484;-86
2023/08/24 07:58:37;;;;;;;18.67;11.50;;;;;;;;;;4370039;32;319491;-85
2023/08/24 08:01:04;;;;;;;20.12;10.77;;;;;;;;;;4381462;32;349493;-78
2023/08/24 08:03:33;;;;;;;18.35;11.95;;;;;;;;;;4356459;32;319469;-86
2023/08/24 08:06:00;;;;;;;12.90;11.15;;;;;;;;;;4371650;32;319502;-79
2023/08/24 08:08:27;;;;;;;24.65;10.88;;;;;;;;;;4367584;32;319510;-79
2023/08/24 08:11:01;;;;;;;12.07;10.73;;;;;;;;;;4374546;32;319449;-80
2023/08/24 08:13:29;;;;;;;15.33;11.30;;;;;;;;;;4352891;32;319874;-82
2023/08/24 08:16:03;;;;;;;19.67;11.75;;;;;;;;;;4380018;32;318738;-85
2023/08/24 08:18:30;;;;;;;15.75;11.25;;;;;;;;;;4377694;32;318915;-85
2023/08/24 08:21:00;;;;;;;18.45;10.65;;;;;;;;;;4385710;32;318797;-84
2023/08/24 08:23:30;;;;;;;13.73;10.88;;;;;;;;;;4360205;32;318848;-82
2023/08/24 08:25:57;;;;;;;21.33;12.00;;;;;;;;;;4383871;32;318752;-84
2023/08/24 08:28:26;;;;;;;17.70;11.40;;;;;;;;;;4378009;32;318987;-82
2023/08/24 08:30:54;;;;;;;12.02;10.63;;;;;;;;;;4387181;32;318723;-83
2023/08/24 08:33:23;;;;;;;11.73;10.40;;;;;;;;;;4384703;32;318847;-83
2023/08/24 08:35:51;;;;;;;24.50;11.45;;;;;;;;;;4372151;32;319028;-82
2023/08/24 08:38:25;;;;;;;24.30;11.12;;;;;;;;;;4373073;32;318830;-82
2023/08/24 08:40:54;;;;;;;18.55;10.30;;;;;;;;;;4368709;32;388331;-82
2023/08/24 08:43:23;;;;;;;18.48;9.73;;;;;;;;;;4376657;32;318730;-83
2023/08/24 08:45:53;;;;;;;15.55;9.73;;;;;;;;;;4387255;32;317985;-86
2023/08/24 08:48:23;;;;;;;10.63;9.57;;;;;;;;;;4386586;32;317833;-82
2023/08/24 08:50:50;;;;;;;17.40;9.20;;;;;;;;;;4360116;32;386765;-81
2023/08/24 08:53:22;;;;;;;12.23;9.60;;;;;;;;;;4384724;32;318131;-81
2023/08/24 08:55:52;;;;;;;9.80;8.90;;;;;;;;;;4359464;32;387373;-82
2023/08/24 08:58:20;;;;;;;14.93;9.88;;;;;;;;;;4371643;32;316793;-83
2023/08/24 09:00:48;;;;;;;11.20;9.27;;;;;;;;;;4366251;32;417174;-83
2023/08/24 09:03:18;;;;;;;10.52;9.40;;;;;;;;;;4387586;32;322857;-85
2023/08/24 09:05:48;;;;;;;12.88;9.15;;;;;;;;;;4375566;32;317791;-84
2023/08/24 09:08:17;;;;;;;11.38;9.93;;;;;;;;;;4387606;32;316891;-82
2023/08/24 09:10:46;;;;;;;14.27;9.07;;;;;;;;;;4376364;32;328310;-81
2023/08/24 09:13:13;;;;;;;16.75;9.68;;;;;;;;;;4387369;32;317984;-83
2023/08/24 09:15:40;;;;;;;16.23;10.03;;;;;;;;;;4373680;32;335867;-84
2023/08/24 09:18:08;;;;;;;10.90;9.38;;;;;;;;;;4386477;32;318794;-82
2023/08/24 09:20:36;;;;;;;10.40;9.18;;;;;;;;;;4377244;32;322488;-84
2023/08/24 09:23:04;;;;;;;11.55;10.10;;;;;;;;;;4386607;32;317756;-83
2023/08/24 09:25:32;;;;;;;10.38;9.38;;;;;;;;;;4374658;32;318780;-84
2023/08/24 09:28:02;;;;;;;12.05;9.88;;;;;;;;;;4385690;32;316584;-84
2023/08/24 09:30:32;;;;;;;13.32;10.45;;;;;;;;;;4369389;32;318108;-84
2023/08/24 09:33:04;;;;;;;16.12;9.02;;;;;;;;;;4386118;32;319079;-82
2023/08/24 09:35:37;;;;;;;11.15;8.68;;;;;;;;;;4374746;32;318031;-82
2023/08/24 09:38:18;;;;;;;10.52;8.98;;;;;;;;;;4384092;32;317773;-81
2023/08/24 09:40:48;;;;;;;13.50;9.25;;;;;;;;;;4375211;32;354911;-85
2023/08/24 09:43:18;;;;;;;17.90;9.30;;;;;;;;;;4386466;32;317665;-82
2023/08/24 09:45:52;;;;;;;11.12;9.40;;;;;;;;;;4374363;32;345394;-80
2023/08/24 09:48:20;;;;;;;13.65;9.98;;;;;;;;;;4383553;32;317753;-79
2023/08/24 09:50:50;;;;;;;19.65;10.05;;;;;;;;;;4372033;32;416939;-84
2023/08/24 09:53:22;;;;;;;21.52;10.00;;;;;;;;;;4386013;32;318988;-83
2023/08/24 09:55:56;;;;;;;14.05;9.30;;;;;;;;;;4373931;32;418624;-84
2023/08/24 09:58:28;;;;;;;12.32;9.23;;;;;;;;;;4374181;32;318197;-84
2023/08/24 10:00:56;;;;;;;23.65;9.50;;;;;;;;;;4363665;32;327993;-85
2023/08/24 10:03:27;;;;;;;14.75;9.82;;;;;;;;;;4386590;32;317782;-86
2023/08/24 10:05:57;;;;;;;12.80;9.93;;;;;;;;;;4373250;32;317893;-84
2023/08/24 10:08:29;;;;;;;10.65;9.65;;;;;;;;;;4385640;32;321884;-84
2023/08/24 10:10:59;;;;;;;12.73;9.05;;;;;;;;;;4376266;32;317730;-86
2023/08/24 10:13:37;;;;;;;12.48;8.93;;;;;;;;;;4386620;32;317706;-86
2023/08/24 10:16:06;;;;;;;10.10;9.05;;;;;;;;;;4373296;32;317784;-86
2023/08/24 10:18:34;;;;;;;9.52;8.63;;;;;;;;;;4386612;32;317682;-86
2023/08/24 10:21:02;;;;;;;12.80;7.95;;;;;;;;;;4374881;32;316701;-83
2023/08/24 10:23:32;;;;;;;17.60;9.82;;;;;;;;;;4386701;32;317785;-82
2023/08/24 10:26:03;;;;;;;16.37;9.55;;;;;;;;;;4376079;32;317784;-83
2023/08/24 10:28:32;;;;;;;10.60;8.52;;;;;;;;;;4384534;32;317838;-83
2023/08/24 10:31:01;;;;;;;17.83;9.23;;;;;;;;;;4375825;32;317900;-83
2023/08/24 10:33:30;;;;;;;15.07;8.90;;;;;;;;;;4385308;32;317991;-82
2023/08/24 10:35:59;;;;;;;13.45;8.00;;;;;;;;;;4376332;32;317799;-84
2023/08/24 10:38:29;;;;;;;11.23;7.85;;;;;;;;;;4386451;32;318006;-85
2023/08/24 10:41:03;;;;;;;19.92;8.93;;;;;;;;;;4371662;32;317985;-83
2023/08/24 10:43:36;;;;;;;14.73;9.05;;;;;;;;;;4386145;32;317980;-84
2023/08/24 10:46:04;;;;;;;11.65;7.62;;;;;;;;;;4374452;32;317963;-82
2023/08/24 10:48:56;;;;;;;13.85;8.38;;;;;;;;;;4384952;32;317944;-84
2023/08/24 10:51:26;;;;;;;11.45;8.18;;;;;;;;;;4364593;32;418338;-84
2023/08/24 10:53:54;;;;;;;11.82;7.78;;;;;;;;;;4373878;32;317921;-84
2023/08/24 10:56:22;;;;;;;8.25;7.45;;;;;;;;;;4385734;32;316500;-83
2023/08/24 10:59:12;;;;;;;11.90;7.95;;;;;;;;;;4385873;32;316915;-82
2023/08/24 11:01:40;;;;;;;8.52;7.50;;;;;;;;;;4372103;32;418672;-82
2023/08/24 11:04:09;;;;;;;12.88;7.87;;;;;;;;;;4374833;32;316859;-82
2023/08/24 11:06:51;;;;;;;16.33;8.02;;;;;;;;;;4385280;32;317761;-82
2023/08/24 11:09:19;;;;;;;9.05;7.65;;;;;;;;;;4357087;32;418114;-82
2023/08/24 11:11:58;;;;;;;13.35;7.55;;;;;;;;;;4381408;32;316772;-83
2023/08/24 11:14:29;;;;;;;17.50;8.00;;;;;;;;;;4338626;32;419851;-83
2023/08/24 11:16:59;;;;;;;10.18;7.93;;;;;;;;;;4345507;32;318012;-83
2023/08/24 11:19:27;;;;;;;11.70;7.60;;;;;;;;;;4384004;32;318105;-83
2023/08/24 11:21:55;;;;;;;9.88;7.55;;;;;;;;;;4370204;32;318160;-83
2023/08/24 11:24:25;;;;;;;10.45;7.95;;;;;;;;;;4378174;32;316555;-82
2023/08/24 11:26:53;;;;;;;15.13;7.95;;;;;;;;;;4374980;32;317655;-83
2023/08/24 11:29:20;;;;;;;9.35;7.28;;;;;;;;;;4369876;32;318156;-83
2023/08/24 11:31:49;;;;;;;8.23;7.00;;;;;;;;;;4370479;32;316689;-84
2023/08/24 11:34:17;;;;;;;8.13;7.30;;;;;;;;;;4374637;32;415687;-82
2023/08/24 11:36:45;;;;;;;11.90;7.15;;;;;;;;;;4387143;32;351199;-83
2023/08/24 11:39:20;;;;;;;12.57;7.82;;;;;;;;;;4362947;32;317959;-84
2023/08/24 11:41:58;;;;;;;10.52;7.53;;;;;;;;;;4370997;32;318022;-84
2023/08/24 11:44:25;;;;;;;10.23;6.75;;;;;;;;;;4376530;32;388672;-81
2023/08/24 11:46:56;;;;;;;10.43;6.45;;;;;;;;;;4377897;32;317956;-82
2023/08/24 11:49:24;;;;;;;7.15;5.82;;;;;;;;;;4372327;32;317630;-84
2023/08/24 11:51:52;;;;;;;12.98;6.53;;;;;;;;;;4371600;32;316732;-82
2023/08/24 11:54:20;;;;;;;8.00;7.03;;;;;;;;;;4505055;27;319622;-85
2023/08/24 11:56:47;;;;;;;17.75;6.30;;;;;;;;;;4399755;32;316814;-83
2023/08/24 11:59:15;;;;;;;10.70;6.07;;;;;;;;;;4389013;32;318169;-84
2023/08/24 12:01:43;;;;;;;10.10;6.03;;;;;;;;;;4398772;32;318355;-85
2023/08/24 12:04:12;;;;;;;9.37;5.50;;;;;;;;;;4389225;32;318294;-84
2023/08/24 12:06:39;;;;;;;7.50;5.72;;;;;;;;;;4398955;32;316581;-85
2023/08/24 12:09:07;;;;;;;5.75;5.05;;;;;;;;;;4389938;32;316417;-85
2023/08/24 12:11:36;;;;;;;7.45;6.30;;;;;;;;;;4399607;32;317176;-85
2023/08/24 12:14:04;;;;;;;9.20;6.18;;;;;;;;;;4391047;32;317273;-85
2023/08/24 12:16:33;;;;;;;17.48;6.28;;;;;;;;;;4397282;32;316797;-85
2023/08/24 12:19:02;;;;;;;20.10;7.20;;;;;;;;;;4389694;32;318298;-85
2023/08/24 12:21:31;;;;;;;29.55;8.13;;;;;;;;;;4395933;32;318405;-84
2023/08/24 12:23:59;;;;;;;16.83;7.50;;;;;;;;;;4387175;32;318347;-84
2023/08/24 12:26:26;;;;;;;14.68;7.62;;;;;;;;;;4398919;32;318346;-84
2023/08/24 12:28:54;;;;;;;9.75;7.80;;;;;;;;;;4390206;32;318442;-87
2023/08/24 12:31:21;;;;;;;12.60;8.18;;;;;;;;;;4392175;32;329630;-85
2023/08/24 12:33:59;;;;;;;11.57;6.53;;;;;;;;;;4397926;32;330492;-85
2023/08/24 12:36:26;;;;;;;8.52;7.12;;;;;;;;;;4384235;32;415833;-85
2023/08/24 12:38:54;;;;;;;8.25;6.80;;;;;;;;;;4388122;32;316775;-84
2023/08/24 12:41:21;;;;;;;10.73;6.45;;;;;;;;;;4393866;32;317356;-85
2023/08/24 12:43:48;;;;;;;12.85;7.28;;;;;;;;;;4395578;32;317594;-85
2023/08/24 12:46:14;;;;;;;10.80;7.22;;;;;;;;;;4384200;32;320467;-85
2023/08/24 12:48:41;;;;;;;12.07;6.35;;;;;;;;;;4399897;32;318042;-85
2023/08/24 12:51:08;;;;;;;11.90;7.50;;;;;;;;;;4385830;32;318714;-85
2023/08/24 12:53:35;;;;;;;15.63;8.30;;;;;;;;;;4391781;32;318374;-85
2023/08/24 12:56:03;;;;;;;19.58;7.50;;;;;;;;;;4374643;32;318254;-85
2023/08/24 12:58:30;;;;;;;16.73;7.40;;;;;;;;;;4384937;32;318578;-85
2023/08/24 13:00:57;;;;;;;11.10;7.37;;;;;;;;;;4371189;32;318596;-85
2023/08/24 13:03:24;;;;;;;9.05;7.40;;;;;;;;;;4384108;32;318246;-85
2023/08/24 13:05:52;;;;;;;8.43;7.47;;;;;;;;;;4381524;32;317083;-86
2023/08/24 13:08:20;;;;;;;11.80;8.38;;;;;;;;;;4381328;32;317131;-85
2023/08/24 13:10:46;;;;;;;13.45;8.85;;;;;;;;;;4368635;32;318420;-85
2023/08/24 13:13:20;;;;;;;11.68;7.97;;;;;;;;;;4373553;32;317842;-85
2023/08/24 13:15:49;;;;;;;15.75;7.47;;;;;;;;;;4385561;32;317801;-85
2023/08/24 13:18:15;;;;;;;13.62;8.15;;;;;;;;;;4375884;32;318503;-85
2023/08/24 13:20:42;;;;;;;9.55;8.52;;;;;;;;;;4385430;32;318582;-86
2023/08/24 13:23:09;;;;;;;9.93;7.53;;;;;;;;;;4374872;32;317290;-85
2023/08/24 13:25:36;;;;;;;9.82;7.80;;;;;;;;;;4383241;32;317290;-86
2023/08/24 13:28:02;;;;;;;12.60;8.00;;;;;;;;;;4374104;32;317189;-86
2023/08/24 13:30:31;;;;;;;10.48;7.95;;;;;;;;;;4383780;32;318382;-85
2023/08/24 13:32:57;;;;;;;10.82;8.40;;;;;;;;;;4372836;32;339920;-86
2023/08/24 13:35:24;;;;;;;11.07;8.73;;;;;;;;;;4382879;32;318427;-86
2023/08/24 13:37:51;;;;;;;17.30;9.05;;;;;;;;;;4373262;32;317866;-86
2023/08/24 13:40:18;;;;;;;14.75;8.30;;;;;;;;;;4383275;32;318052;-86
2023/08/24 13:42:46;;;;;;;10.52;8.65;;;;;;;;;;4383881;32;317866;-86
2023/08/24 13:45:12;;;;;;;13.25;9.57;;;;;;;;;;4373692;32;319653;-85
2023/08/24 13:47:40;;;;;;;13.68;9.43;;;;;;;;;;4383722;32;319478;-84
2023/08/24 13:50:10;;;;;;;15.45;8.48;;;;;;;;;;4373651;32;318641;-85
2023/08/24 13:52:37;;;;;;;19.37;9.18;;;;;;;;;;4383165;32;318325;-85
2023/08/24 13:55:06;;;;;;;12.63;8.07;;;;;;;;;;4369322;32;337359;-84
2023/08/24 13:57:33;;;;;;;9.65;8.02;;;;;;;;;;4381465;32;318150;-86
2023/08/24 14:00:01;;;;;;;12.25;8.85;;;;;;;;;;4371503;32;317506;-84
2023/08/24 14:02:28;;;;;;;14.07;8.68;;;;;;;;;;4381096;32;317903;-84
2023/08/24 14:04:56;;;;;;;11.15;8.23;;;;;;;;;;4369385;32;317894;-89
2023/08/24 14:07:23;;;;;;;17.60;9.27;;;;;;;;;;4380388;32;318377;-85
2023/08/24 14:09:49;;;;;;;12.50;9.15;;;;;;;;;;4381189;32;318404;-82
2023/08/24 14:12:19;;;;;;;10.50;9.25;;;;;;;;;;4370904;32;317681;-82
2023/08/24 14:14:46;;;;;;;12.10;8.60;;;;;;;;;;4377163;32;318388;-82
2023/08/24 14:17:14;;;;;;;10.32;8.27;;;;;;;;;;4366263;32;318574;-81
2023/08/24 14:19:41;;;;;;;12.02;10.00;;;;;;;;;;4379340;32;317702;-80